Huvudsida
METAR-TAF:

METAR-TAF

Flygplatser :

Vilhelmina flygplats

Vilhelmina, Sverige

latitud: 64-34-44N, longitud: 016-50-00E, höjd: 347 m

Aktuellt väderrapport

Denna rapport gjordes för 14 minuter sedan, klockan 06:20 UTC
Vind 7 kt från väst, varierande mellan väst/sydväst och nordväst
Temperatur 10°C
Fuktighet 62%
Tryck 1003 hPa
Sikt 10 km eller mer

METAR: ESNV 210620Z AUTO 28007KT 250V320 9999 OVC031/// 10/03 Q1003

Tid: 08:34 (06:34 UTC)


TAF: saknas

Aktuella väderrapporter och prognoser från 4000 flygplatser (METAR- och TAF-rapporter).

De tillgängliga stationerna syns som gula och röda prickar på kartan.

För musen över prickarna för att se namnen på stationerna.

Klicka sedan för att få väderrapporter och prognoser.

För att ändra kartan: Klicka på de gröna knapparna med ett svart kors på för att zooma in; den gröna knappen med ett streck på för att zooma ut; eller på de gröna pilarna för angränsande kartor.


METAR-TAF: